createdAt,value
2019-04-10T00:00:46.023Z,0
2019-04-10T00:01:58.000Z,0
2019-04-10T00:03:10.414Z,0
2019-04-10T00:04:22.604Z,0
2019-04-10T00:05:34.008Z,0
2019-04-10T00:06:46.996Z,0
2019-04-10T00:07:59.185Z,0
2019-04-10T00:09:11.417Z,0
2019-04-10T00:10:23.577Z,0
2019-04-10T00:11:35.007Z,0
2019-04-10T00:12:47.967Z,0
2019-04-10T00:14:00.000Z,0
2019-04-10T00:15:12.000Z,0
2019-04-10T00:16:24.054Z,0
2019-04-10T00:17:36.738Z,0
2019-04-10T00:18:48.935Z,0
2019-04-10T00:20:01.129Z,0
2019-04-10T00:21:13.314Z,0
2019-04-10T00:22:25.050Z,0
2019-04-10T00:23:37.711Z,0
2019-04-10T00:24:49.897Z,0
2019-04-10T00:26:02.000Z,0
2019-04-10T00:27:14.286Z,0
2019-04-10T00:28:26.484Z,0
2019-04-10T00:29:38.674Z,0
2019-04-10T00:30:50.860Z,0
2019-04-10T00:33:15.252Z,0
2019-04-10T00:34:27.446Z,0
2019-04-10T00:35:39.064Z,0
2019-04-10T00:36:51.000Z,0
2019-04-10T00:38:04.028Z,0
2019-04-10T00:39:16.222Z,0
2019-04-10T00:40:28.418Z,0
2019-04-10T00:41:40.609Z,0
2019-04-10T00:42:52.798Z,0
2019-04-10T00:44:04.988Z,0
2019-04-10T00:45:17.183Z,0
2019-04-10T00:46:29.383Z,0
2019-04-10T00:47:41.568Z,0
2019-04-10T00:48:53.762Z,0
2019-04-10T00:50:05.964Z,0
2019-04-10T00:51:18.158Z,0
2019-04-10T00:52:30.345Z,0
2019-04-10T00:53:42.541Z,0
2019-04-10T00:54:54.073Z,0
2019-04-10T00:56:06.924Z,0
2019-04-10T00:57:19.116Z,0
2019-04-10T00:58:31.311Z,0
2019-04-10T00:59:43.511Z,0
2019-04-10T01:00:55.697Z,0
2019-04-10T01:02:07.000Z,0
2019-04-10T01:03:20.086Z,0
2019-04-10T01:04:32.288Z,0
2019-04-10T01:05:44.000Z,0
2019-04-10T01:08:08.870Z,0
2019-04-10T01:09:21.014Z,0
2019-04-10T01:10:33.247Z,0
2019-04-10T01:11:45.441Z,0
2019-04-10T01:12:57.063Z,0
2019-04-10T01:14:09.000Z,0
2019-04-10T01:15:22.030Z,0
2019-04-10T01:16:34.327Z,0
2019-04-10T01:17:46.414Z,0
2019-04-10T01:18:58.607Z,0
2019-04-10T01:20:10.794Z,0
2019-04-10T01:21:23.013Z,0
2019-04-10T01:22:35.194Z,0
2019-04-10T01:23:47.380Z,0
2019-04-10T01:24:59.578Z,0
2019-04-10T01:26:11.000Z,0
2019-04-10T01:27:23.953Z,0
2019-04-10T01:28:36.015Z,0
2019-04-10T01:29:48.349Z,0
2019-04-10T01:31:00.535Z,0
2019-04-10T01:32:12.730Z,0
2019-04-10T01:33:24.928Z,0
2019-04-10T01:34:37.117Z,0
2019-04-10T01:35:49.323Z,0
2019-04-10T01:38:13.000Z,0
2019-04-10T01:39:25.895Z,0
2019-04-10T01:40:38.188Z,0
2019-04-10T01:41:50.000Z,0
2019-04-10T01:43:02.468Z,0
2019-04-10T01:44:14.669Z,0
2019-04-10T01:45:26.877Z,0
2019-04-10T01:46:39.005Z,0
2019-04-10T01:47:51.249Z,0
2019-04-10T01:49:03.439Z,0
2019-04-10T01:50:15.000Z,0
2019-04-10T01:51:27.836Z,0
2019-04-10T01:52:40.022Z,0
2019-04-10T01:55:04.412Z,0
2019-04-10T01:56:16.604Z,0
2019-04-10T01:57:28.788Z,0
2019-04-10T01:58:40.986Z,0
2019-04-10T01:59:53.183Z,0
2019-04-10T02:01:05.370Z,0
2019-04-10T02:02:17.000Z,0
2019-04-10T02:03:29.761Z,0
2019-04-10T02:04:41.959Z,0
2019-04-10T02:05:54.150Z,0
2019-04-10T02:07:06.355Z,0
2019-04-10T02:08:18.534Z,0
2019-04-10T02:09:30.072Z,0
2019-04-10T02:10:42.092Z,0
2019-04-10T02:11:55.122Z,0
2019-04-10T02:13:07.308Z,0
2019-04-10T02:14:19.506Z,0
2019-04-10T02:15:31.694Z,0
2019-04-10T02:16:43.887Z,0
2019-04-10T02:17:56.095Z,0
2019-04-10T02:20:20.470Z,0
2019-04-10T02:21:32.666Z,0
2019-04-10T02:22:44.855Z,0
2019-04-10T02:23:57.051Z,0
2019-04-10T02:25:09.000Z,0
2019-04-10T02:26:21.000Z,0
2019-04-10T02:27:33.636Z,0
2019-04-10T02:28:45.823Z,0
2019-04-10T02:29:58.001Z,0
2019-04-10T02:32:22.421Z,0
2019-04-10T02:33:34.616Z,0
2019-04-10T02:34:46.000Z,0
2019-04-10T02:35:59.006Z,0
2019-04-10T02:37:11.190Z,0
2019-04-10T02:38:23.000Z,0
2019-04-10T02:39:35.565Z,0
2019-04-10T02:40:47.759Z,0
2019-04-10T02:41:59.952Z,0
2019-04-10T02:44:24.344Z,0
2019-04-10T02:45:36.533Z,0
2019-04-10T02:46:48.000Z,0
2019-04-10T02:48:00.925Z,0
2019-04-10T02:49:13.116Z,0
2019-04-10T02:50:25.307Z,0
2019-04-10T02:51:37.515Z,0
2019-04-10T02:52:49.697Z,0
2019-04-10T02:54:01.000Z,0
2019-04-10T02:56:26.281Z,0
2019-04-10T02:57:38.622Z,0
2019-04-10T02:58:50.659Z,0
2019-04-10T03:00:02.862Z,0
2019-04-10T03:01:15.044Z,0
2019-04-10T03:02:27.000Z,0
2019-04-10T03:03:39.432Z,0
2019-04-10T03:04:51.632Z,0
2019-04-10T03:06:03.824Z,0
2019-04-10T03:08:28.000Z,0
2019-04-10T03:09:40.418Z,0
2019-04-10T03:10:52.059Z,0
2019-04-10T03:12:04.078Z,0
2019-04-10T03:13:17.014Z,0
2019-04-10T03:14:29.000Z,0
2019-04-10T03:15:41.376Z,0
2019-04-10T03:16:53.565Z,0
2019-04-10T03:18:05.760Z,0
2019-04-10T03:19:17.962Z,0
2019-04-10T03:20:30.150Z,0
2019-04-10T03:21:42.333Z,0
2019-04-10T03:22:54.529Z,0
2019-04-10T03:24:06.724Z,0
2019-04-10T03:26:31.000Z,0
2019-04-10T03:27:43.304Z,0
2019-04-10T03:28:55.502Z,0
2019-04-10T03:30:07.693Z,0
2019-04-10T03:32:32.079Z,0
2019-04-10T03:33:44.271Z,0
2019-04-10T03:34:56.471Z,0
2019-04-10T03:36:08.663Z,0
2019-04-10T03:37:20.873Z,0
2019-04-10T03:38:33.046Z,0
2019-04-10T03:39:45.234Z,0
2019-04-10T03:40:57.437Z,0
2019-04-10T03:42:09.637Z,0
2019-04-10T03:43:21.082Z,0
2019-04-10T03:44:34.001Z,0
2019-04-10T03:45:46.210Z,0
2019-04-10T03:46:58.040Z,0
2019-04-10T03:48:10.597Z,0
2019-04-10T03:49:22.793Z,0
2019-04-10T03:50:34.000Z,0
2019-04-10T03:51:47.000Z,0
2019-04-10T03:52:59.368Z,0
2019-04-10T03:54:11.566Z,0
2019-04-10T03:55:23.752Z,0
2019-04-10T03:56:35.949Z,0
2019-04-10T03:57:48.149Z,0
2019-04-10T03:59:00.000Z,0
2019-04-10T04:00:12.550Z,0
2019-04-10T04:01:24.726Z,0
2019-04-10T04:02:36.917Z,0
2019-04-10T04:03:49.104Z,0
2019-04-10T04:05:01.298Z,0
2019-04-10T04:06:13.000Z,0
2019-04-10T04:07:25.684Z,4
2019-04-10T04:08:37.882Z,4
2019-04-10T04:09:50.078Z,0
2019-04-10T04:11:02.266Z,0
2019-04-10T04:12:14.457Z,4
2019-04-10T04:13:26.000Z,4
2019-04-10T04:14:38.848Z,4
2019-04-10T04:15:51.004Z,4
2019-04-10T04:17:03.243Z,4
2019-04-10T04:18:15.440Z,4
2019-04-10T04:19:27.623Z,8
2019-04-10T04:20:39.089Z,4
2019-04-10T04:21:52.004Z,8
2019-04-10T04:23:04.205Z,8
2019-04-10T04:24:16.405Z,8
2019-04-10T04:25:28.587Z,8
2019-04-10T04:26:40.776Z,12
2019-04-10T04:27:52.000Z,16
2019-04-10T04:29:05.171Z,12
2019-04-10T04:30:17.036Z,12
2019-04-10T04:31:29.055Z,16
2019-04-10T04:32:41.748Z,16
2019-04-10T04:33:53.941Z,16
2019-04-10T04:35:06.136Z,20
2019-04-10T04:36:18.334Z,20
2019-04-10T04:37:30.523Z,20
2019-04-10T04:38:42.000Z,24
2019-04-10T04:39:54.924Z,24
2019-04-10T04:41:07.106Z,24
2019-04-10T04:42:19.000Z,24
2019-04-10T04:43:31.494Z,28
2019-04-10T04:44:43.705Z,28
2019-04-10T04:45:55.874Z,32
2019-04-10T04:47:08.008Z,32
2019-04-10T04:48:20.268Z,32
2019-04-10T04:50:44.000Z,32
2019-04-10T04:51:56.084Z,36
2019-04-10T04:53:09.034Z,36
2019-04-10T04:54:21.233Z,40
2019-04-10T04:55:33.426Z,44
2019-04-10T04:56:45.617Z,44
2019-04-10T04:57:57.811Z,48
2019-04-10T04:59:10.000Z,48
2019-04-10T05:00:22.218Z,52
2019-04-10T05:01:34.400Z,52
2019-04-10T05:02:46.000Z,56
2019-04-10T05:03:58.785Z,56
2019-04-10T05:05:10.976Z,60
2019-04-10T05:06:23.172Z,60
2019-04-10T05:07:35.363Z,64
2019-04-10T05:08:47.551Z,68
2019-04-10T05:09:59.757Z,68
2019-04-10T05:11:11.952Z,72
2019-04-10T05:12:24.000Z,72
2019-04-10T05:13:36.334Z,72
2019-04-10T05:14:48.000Z,76
2019-04-10T05:16:00.070Z,76
2019-04-10T05:17:13.128Z,84
2019-04-10T05:18:25.099Z,80
2019-04-10T05:19:37.003Z,84
2019-04-10T05:20:49.484Z,88
2019-04-10T05:22:01.701Z,88
2019-04-10T05:23:13.878Z,92
2019-04-10T05:24:26.071Z,92
2019-04-10T05:25:38.000Z,96
2019-04-10T05:26:50.465Z,100
2019-04-10T05:28:02.652Z,100
2019-04-10T05:29:14.084Z,100
2019-04-10T05:30:27.049Z,104
2019-04-10T05:31:39.227Z,104
2019-04-10T05:32:51.000Z,108
2019-04-10T05:34:03.062Z,108
2019-04-10T05:35:15.813Z,108
2019-04-10T05:36:28.009Z,112
2019-04-10T05:37:40.195Z,112
2019-04-10T05:38:52.394Z,112
2019-04-10T05:40:04.000Z,116
2019-04-10T05:41:16.783Z,116
2019-04-10T05:42:28.097Z,116
2019-04-10T05:43:41.001Z,116
2019-04-10T05:44:53.358Z,116
2019-04-10T05:46:05.553Z,116
2019-04-10T05:47:17.748Z,120
2019-04-10T05:48:29.960Z,120
2019-04-10T05:49:42.131Z,124
2019-04-10T05:50:54.329Z,124
2019-04-10T05:52:06.526Z,124
2019-04-10T05:53:18.718Z,124
2019-04-10T05:54:30.907Z,132
2019-04-10T05:56:55.297Z,132
2019-04-10T05:58:07.491Z,136
2019-04-10T05:59:19.688Z,136
2019-04-10T06:00:31.880Z,144
2019-04-10T06:02:56.261Z,144
2019-04-10T06:04:08.457Z,148
2019-04-10T06:05:20.648Z,148
2019-04-10T06:06:32.841Z,152
2019-04-10T06:08:57.234Z,156
2019-04-10T06:10:09.042Z,160
2019-04-10T06:11:21.620Z,164
2019-04-10T06:12:33.083Z,164
2019-04-10T06:13:46.009Z,168
2019-04-10T06:14:58.020Z,168
2019-04-10T06:16:10.392Z,168
2019-04-10T06:17:22.599Z,172
2019-04-10T06:18:34.776Z,176
2019-04-10T06:19:46.968Z,176
2019-04-10T06:20:59.184Z,184
2019-04-10T06:22:11.356Z,192
2019-04-10T06:23:23.551Z,196
2019-04-10T06:24:35.749Z,192
2019-04-10T06:25:47.947Z,192
2019-04-10T06:27:00.141Z,196
2019-04-10T06:28:12.329Z,196
2019-04-10T06:29:24.522Z,200
2019-04-10T06:30:36.718Z,208
2019-04-10T06:31:48.919Z,212
2019-04-10T06:33:01.096Z,220
2019-04-10T06:34:13.295Z,216
2019-04-10T06:35:25.048Z,220
2019-04-10T06:36:37.684Z,224
2019-04-10T06:37:49.000Z,212
2019-04-10T06:39:02.065Z,208
2019-04-10T06:40:14.265Z,208
2019-04-10T06:41:26.453Z,208
2019-04-10T06:42:38.648Z,212
2019-04-10T06:45:03.000Z,224
2019-04-10T06:46:15.229Z,220
2019-04-10T06:47:27.420Z,220
2019-04-10T06:48:39.612Z,224
2019-04-10T06:49:51.008Z,228
2019-04-10T06:51:03.000Z,224
2019-04-10T06:52:16.194Z,228
2019-04-10T06:53:28.586Z,224
2019-04-10T06:54:40.583Z,216
2019-04-10T06:55:52.775Z,228
2019-04-10T06:57:04.980Z,236
2019-04-10T06:58:17.164Z,240
2019-04-10T06:59:29.000Z,240
2019-04-10T07:00:41.549Z,232
2019-04-10T07:01:53.743Z,236
2019-04-10T07:03:05.917Z,244
2019-04-10T07:04:18.134Z,232
2019-04-10T07:05:30.323Z,240
2019-04-10T07:06:42.580Z,252
2019-04-10T07:07:54.727Z,252
2019-04-10T07:09:06.906Z,256
2019-04-10T07:10:19.111Z,260
2019-04-10T07:11:31.312Z,260
2019-04-10T07:12:43.490Z,260
2019-04-10T07:13:55.679Z,256
2019-04-10T07:15:07.000Z,260
2019-04-10T07:16:20.074Z,256
2019-04-10T07:17:32.257Z,264
2019-04-10T07:19:56.650Z,268
2019-04-10T07:21:08.849Z,268
2019-04-10T07:22:21.047Z,272
2019-04-10T07:24:45.422Z,280
2019-04-10T07:25:57.618Z,284
2019-04-10T07:27:09.810Z,284
2019-04-10T07:28:22.002Z,284
2019-04-10T07:29:34.202Z,276
2019-04-10T07:30:46.392Z,280
2019-04-10T07:31:58.596Z,276
2019-04-10T07:33:10.774Z,280
2019-04-10T07:34:22.974Z,280
2019-04-10T07:35:35.017Z,156
2019-04-10T07:36:47.601Z,292
2019-04-10T07:37:59.556Z,292
2019-04-10T07:39:11.000Z,288
2019-04-10T07:40:23.938Z,288
2019-04-10T07:41:36.139Z,284
2019-04-10T07:42:48.327Z,292
2019-04-10T07:45:12.716Z,284
2019-04-10T07:46:24.909Z,288
2019-04-10T07:47:37.105Z,296
2019-04-10T07:48:49.292Z,304
2019-04-10T07:50:01.000Z,320
2019-04-10T07:51:13.000Z,324
2019-04-10T07:52:26.128Z,316
2019-04-10T07:53:38.000Z,316
2019-04-10T07:54:50.258Z,308
2019-04-10T07:56:02.458Z,300
2019-04-10T07:57:14.006Z,308
2019-04-10T07:58:26.849Z,312
2019-04-10T07:59:39.046Z,312
2019-04-10T08:00:51.039Z,316
2019-04-10T08:02:03.429Z,324
2019-04-10T08:03:15.000Z,324
2019-04-10T08:04:27.807Z,348
2019-04-10T08:05:40.003Z,376
2019-04-10T08:06:52.259Z,356
2019-04-10T08:08:04.393Z,344
2019-04-10T08:09:16.596Z,340
2019-04-10T08:10:28.780Z,344
2019-04-10T08:11:40.977Z,344
2019-04-10T08:12:53.170Z,344
2019-04-10T08:14:05.510Z,356
2019-04-10T08:15:17.000Z,344
2019-04-10T08:16:29.745Z,356
2019-04-10T08:17:41.945Z,360
2019-04-10T08:20:07.042Z,368
2019-04-10T08:21:18.537Z,368
2019-04-10T08:22:30.727Z,372
2019-04-10T08:23:42.916Z,372
2019-04-10T08:24:55.107Z,376
2019-04-10T08:26:07.000Z,384
2019-04-10T08:27:19.000Z,392
2019-04-10T08:28:31.702Z,400
2019-04-10T08:29:43.893Z,396
2019-04-10T08:30:56.085Z,396
2019-04-10T08:33:20.476Z,404
2019-04-10T08:34:32.670Z,408
2019-04-10T08:35:44.865Z,404
2019-04-10T08:36:57.106Z,408
2019-04-10T08:38:09.253Z,416
2019-04-10T08:39:21.446Z,508
2019-04-10T08:40:33.641Z,456
2019-04-10T08:41:45.855Z,416
2019-04-10T08:42:58.038Z,412
2019-04-10T08:44:10.232Z,404
2019-04-10T08:45:22.437Z,404
2019-04-10T08:46:34.615Z,404
2019-04-10T08:47:46.000Z,408
2019-04-10T08:48:59.007Z,408
2019-04-10T08:50:11.266Z,404
2019-04-10T08:51:23.000Z,436
2019-04-10T08:52:35.598Z,452
2019-04-10T08:53:47.789Z,420
2019-04-10T08:54:59.988Z,428
2019-04-10T08:57:24.381Z,400
2019-04-10T08:58:36.057Z,440
2019-04-10T08:59:48.076Z,444
2019-04-10T09:01:00.963Z,432
2019-04-10T09:02:13.016Z,424
2019-04-10T09:03:25.000Z,404
2019-04-10T09:04:37.547Z,380
2019-04-10T09:05:49.755Z,376
2019-04-10T09:07:02.427Z,376
2019-04-10T09:08:14.130Z,380
2019-04-10T09:09:26.325Z,396
2019-04-10T09:10:38.051Z,396
2019-04-10T09:11:50.714Z,404
2019-04-10T09:13:02.906Z,420
2019-04-10T09:14:15.111Z,412
2019-04-10T09:15:27.000Z,380
2019-04-10T09:16:39.000Z,364
2019-04-10T09:17:51.068Z,360
2019-04-10T09:19:03.889Z,356
2019-04-10T09:20:16.078Z,352
2019-04-10T09:21:28.283Z,368
2019-04-10T09:22:40.471Z,388
2019-04-10T09:23:52.684Z,400
2019-04-10T09:25:04.000Z,404
2019-04-10T09:26:17.054Z,400
2019-04-10T09:27:29.000Z,376
2019-04-10T09:28:41.449Z,348
2019-04-10T09:29:53.638Z,348
2019-04-10T09:31:05.839Z,332
2019-04-10T09:32:18.027Z,328
2019-04-10T09:33:30.231Z,368
2019-04-10T09:34:42.422Z,324
2019-04-10T09:35:54.618Z,352
2019-04-10T09:37:06.810Z,384
2019-04-10T09:38:19.008Z,392
2019-04-10T09:39:31.000Z,384
2019-04-10T09:40:43.401Z,396
2019-04-10T09:41:55.596Z,400
2019-04-10T09:43:07.791Z,408
2019-04-10T09:45:32.176Z,336
2019-04-10T09:46:44.037Z,336
2019-04-10T09:47:56.582Z,348
2019-04-10T09:49:08.757Z,372
2019-04-10T09:50:20.953Z,348
2019-04-10T09:51:33.000Z,380
2019-04-10T09:52:45.358Z,356
2019-04-10T09:53:57.640Z,364
2019-04-10T09:55:09.737Z,372
2019-04-10T09:56:21.938Z,388
2019-04-10T09:57:34.123Z,396
2019-04-10T09:58:46.313Z,424
2019-04-10T09:59:58.513Z,456
2019-04-10T10:01:10.715Z,456
2019-04-10T10:03:35.099Z,496
2019-04-10T10:04:47.374Z,488
2019-04-10T10:05:59.488Z,492
2019-04-10T10:07:11.687Z,512
2019-04-10T10:08:23.915Z,508
2019-04-10T10:09:36.080Z,504
2019-04-10T10:10:48.000Z,488
2019-04-10T10:12:00.459Z,468
2019-04-10T10:13:12.066Z,472
2019-04-10T10:14:24.854Z,472
2019-04-10T10:15:37.000Z,456
2019-04-10T10:16:49.254Z,464
2019-04-10T10:18:01.043Z,440
2019-04-10T10:19:13.642Z,460
2019-04-10T10:20:25.836Z,504
2019-04-10T10:21:38.025Z,456
2019-04-10T10:22:50.222Z,432
2019-04-10T10:24:02.410Z,432
2019-04-10T10:25:14.606Z,436
2019-04-10T10:26:26.801Z,436
2019-04-10T10:27:39.035Z,420
2019-04-10T10:28:51.000Z,392
2019-04-10T10:30:03.000Z,368
2019-04-10T10:31:15.060Z,348
2019-04-10T10:32:27.785Z,348
2019-04-10T10:33:39.982Z,356
2019-04-10T10:34:52.169Z,364
2019-04-10T10:36:04.376Z,360
2019-04-10T10:37:16.558Z,364
2019-04-10T10:38:28.752Z,444
2019-04-10T10:39:40.948Z,464
2019-04-10T10:40:53.144Z,476
2019-04-10T10:42:05.339Z,484
2019-04-10T10:43:17.528Z,472
2019-04-10T10:44:29.732Z,484
2019-04-10T10:45:41.927Z,472
2019-04-10T10:46:54.121Z,456
2019-04-10T10:48:10.348Z,428
2019-04-10T10:49:18.506Z,468
2019-04-10T10:50:30.000Z,432
2019-04-10T10:52:55.093Z,500
2019-04-10T10:54:07.291Z,500
2019-04-10T10:55:19.501Z,484
2019-04-10T10:56:31.686Z,464
2019-04-10T10:57:43.876Z,504
2019-04-10T10:58:56.067Z,528
2019-04-10T11:00:08.263Z,508
2019-04-10T11:01:20.466Z,488
2019-04-10T11:02:32.655Z,468
2019-04-10T11:03:44.000Z,440
2019-04-10T11:04:57.000Z,432
2019-04-10T11:07:21.446Z,420
2019-04-10T11:08:33.623Z,448
2019-04-10T11:09:45.822Z,468
2019-04-10T11:10:58.042Z,488
2019-04-10T11:12:10.218Z,452
2019-04-10T11:13:22.406Z,476
2019-04-10T11:14:34.608Z,456
2019-04-10T11:15:46.000Z,464
2019-04-10T11:16:59.006Z,472
2019-04-10T11:18:11.217Z,476
2019-04-10T11:19:23.386Z,492
2019-04-10T11:21:47.778Z,520
2019-04-10T11:22:59.971Z,536
2019-04-10T11:24:12.180Z,484
2019-04-10T11:25:24.361Z,484
2019-04-10T11:26:36.000Z,488
2019-04-10T11:27:48.000Z,488
2019-04-10T11:29:00.094Z,512
2019-04-10T11:30:13.134Z,496
2019-04-10T11:31:25.333Z,504
2019-04-10T11:33:49.722Z,604
2019-04-10T11:35:01.091Z,604
2019-04-10T11:36:14.113Z,584
2019-04-10T11:37:26.313Z,540
2019-04-10T11:38:38.507Z,552
2019-04-10T11:39:50.000Z,560
2019-04-10T11:41:02.892Z,560
2019-04-10T11:42:15.089Z,548
2019-04-10T11:43:27.285Z,612
2019-04-10T11:44:39.484Z,648
2019-04-10T11:45:51.692Z,664
2019-04-10T11:47:04.074Z,676
2019-04-10T11:48:16.061Z,684
2019-04-10T11:49:28.256Z,692
2019-04-10T11:50:40.448Z,688
2019-04-10T11:51:52.659Z,668
2019-04-10T11:53:04.084Z,652
2019-04-10T11:54:17.047Z,640
2019-04-10T11:57:53.627Z,572
2019-04-10T11:59:05.819Z,556
2019-04-10T12:00:18.008Z,548
2019-04-10T12:01:30.214Z,548
2019-04-10T12:02:42.403Z,560
2019-04-10T12:03:54.000Z,572
2019-04-10T12:05:06.079Z,616
2019-04-10T12:06:18.992Z,616
2019-04-10T12:07:31.194Z,596
2019-04-10T12:09:55.576Z,580
2019-04-10T12:11:07.771Z,588
2019-04-10T12:12:19.968Z,600
2019-04-10T12:13:32.159Z,604
2019-04-10T12:14:44.353Z,560
2019-04-10T12:15:56.000Z,548
2019-04-10T12:17:08.000Z,544
2019-04-10T12:18:20.094Z,556
2019-04-10T12:19:33.137Z,548
2019-04-10T12:20:45.327Z,524
2019-04-10T12:21:57.556Z,520
2019-04-10T12:23:09.723Z,492
2019-04-10T12:24:21.916Z,508
2019-04-10T12:25:34.112Z,592
2019-04-10T12:26:46.304Z,600
2019-04-10T12:27:58.671Z,604
2019-04-10T12:29:10.697Z,608
2019-04-10T12:30:22.905Z,632
2019-04-10T12:31:35.087Z,668
2019-04-10T12:32:47.286Z,640
2019-04-10T12:33:59.501Z,620
2019-04-10T12:35:11.067Z,604
2019-04-10T12:36:23.877Z,596
2019-04-10T12:37:36.066Z,600
2019-04-10T12:38:48.254Z,640
2019-04-10T12:40:00.451Z,608
2019-04-10T12:41:12.645Z,632
2019-04-10T12:42:24.837Z,636
2019-04-10T12:43:37.003Z,564
2019-04-10T12:44:49.235Z,516
2019-04-10T12:46:01.045Z,484
2019-04-10T12:47:13.623Z,464
2019-04-10T12:48:25.083Z,464
2019-04-10T12:49:38.007Z,480
2019-04-10T12:50:50.209Z,540
2019-04-10T12:52:02.000Z,704
2019-04-10T12:53:14.603Z,568
2019-04-10T12:54:26.796Z,556
2019-04-10T12:55:39.002Z,588
2019-04-10T12:56:51.185Z,656
2019-04-10T12:58:03.379Z,832
2019-04-10T12:59:15.591Z,852
2019-04-10T13:00:27.778Z,764
2019-04-10T13:01:39.977Z,812
2019-04-10T13:02:52.162Z,804
2019-04-10T13:04:04.000Z,840
2019-04-10T13:05:16.553Z,1008
2019-04-10T13:06:28.775Z,988
2019-04-10T13:07:40.941Z,964
2019-04-10T13:10:05.340Z,1000
2019-04-10T13:11:17.535Z,768
2019-04-10T13:12:29.729Z,748
2019-04-10T13:13:41.918Z,696
2019-04-10T13:14:54.000Z,744
2019-04-10T13:16:06.316Z,1052
2019-04-10T13:18:30.712Z,980
2019-04-10T13:19:42.910Z,788
2019-04-10T13:20:55.095Z,728
2019-04-10T13:22:07.390Z,740
2019-04-10T13:23:19.489Z,672
2019-04-10T13:24:31.706Z,672
2019-04-10T13:25:43.893Z,1156
2019-04-10T13:26:56.076Z,736
2019-04-10T13:28:08.000Z,788
2019-04-10T13:29:20.668Z,724
2019-04-10T13:30:32.000Z,844
2019-04-10T13:31:44.868Z,888
2019-04-10T13:32:57.056Z,1076
2019-04-10T13:34:09.457Z,844
2019-04-10T13:35:21.440Z,1352
2019-04-10T13:36:33.000Z,1456
2019-04-10T13:37:45.000Z,1008
2019-04-10T13:38:58.031Z,1224
2019-04-10T13:40:10.000Z,1516
2019-04-10T13:41:22.419Z,972
2019-04-10T13:42:34.000Z,1052
2019-04-10T13:44:59.004Z,1540
2019-04-10T13:46:11.200Z,1724
2019-04-10T13:47:23.394Z,1224
2019-04-10T13:48:35.594Z,1272
2019-04-10T13:49:47.781Z,1552
2019-04-10T13:50:59.987Z,1180
2019-04-10T13:52:12.000Z,1084
2019-04-10T13:53:24.366Z,1252
2019-04-10T13:54:36.636Z,1760
2019-04-10T13:55:48.780Z,1244
2019-04-10T13:57:00.968Z,1432
2019-04-10T13:58:13.151Z,1828
2019-04-10T13:59:25.356Z,1516
2019-04-10T14:00:37.541Z,8592
2019-04-10T14:01:49.744Z,7016
2019-04-10T14:03:01.945Z,2912
2019-04-10T14:04:14.000Z,3140
2019-04-10T14:05:26.341Z,3972
2019-04-10T14:06:38.519Z,5072
2019-04-10T14:07:50.721Z,1284
2019-04-10T14:09:02.910Z,924
2019-04-10T14:11:27.331Z,716
2019-04-10T14:12:39.000Z,672
2019-04-10T14:13:51.695Z,680
2019-04-10T14:15:03.089Z,716
2019-04-10T14:16:16.000Z,1032
2019-04-10T14:17:28.286Z,5656
2019-04-10T14:18:40.475Z,1712
2019-04-10T14:19:52.675Z,1352
2019-04-10T14:21:04.876Z,5488
2019-04-10T14:22:17.068Z,32224
2019-04-10T14:23:29.026Z,32960
2019-04-10T14:24:41.453Z,1780
2019-04-10T14:25:53.659Z,28512
2019-04-10T14:27:05.854Z,32096
2019-04-10T14:28:18.000Z,28864
2019-04-10T14:29:30.248Z,30080
2019-04-10T14:30:42.432Z,13256
2019-04-10T14:31:54.629Z,832
2019-04-10T14:33:06.839Z,692
2019-04-10T14:34:19.001Z,608
2019-04-10T14:35:31.240Z,544
2019-04-10T14:36:43.499Z,504
2019-04-10T14:37:55.606Z,496
2019-04-10T14:39:07.806Z,468
2019-04-10T14:40:19.997Z,424
2019-04-10T14:41:32.210Z,376
2019-04-10T14:42:44.407Z,348
2019-04-10T14:43:56.587Z,324
2019-04-10T14:45:08.793Z,296
2019-04-10T14:46:20.975Z,284
2019-04-10T14:47:33.170Z,280
2019-04-10T14:48:45.373Z,280
2019-04-10T14:49:57.577Z,280
2019-04-10T14:51:09.758Z,288
2019-04-10T14:52:21.950Z,312
2019-04-10T14:53:34.176Z,360
2019-04-10T14:54:46.338Z,428
2019-04-10T14:55:58.000Z,480
2019-04-10T14:57:10.073Z,540
2019-04-10T14:58:22.936Z,616
2019-04-10T14:59:35.116Z,716
2019-04-10T15:00:47.324Z,796
2019-04-10T15:01:59.619Z,808
2019-04-10T15:03:11.706Z,2268
2019-04-10T15:04:23.000Z,2348
2019-04-10T15:05:36.103Z,2464
2019-04-10T15:06:48.354Z,2588
2019-04-10T15:08:00.049Z,2696
2019-04-10T15:09:12.684Z,2840
2019-04-10T15:10:24.000Z,2904
2019-04-10T15:11:37.074Z,1496
2019-04-10T15:12:49.029Z,1212
2019-04-10T15:14:01.468Z,1572
2019-04-10T15:15:13.730Z,540
2019-04-10T15:16:25.856Z,500
2019-04-10T15:17:38.056Z,428
2019-04-10T15:18:50.251Z,364
2019-04-10T15:20:02.446Z,324
2019-04-10T15:22:26.835Z,268
2019-04-10T15:23:39.029Z,244
2019-04-10T15:24:51.227Z,232
2019-04-10T15:26:03.423Z,224
2019-04-10T15:27:15.624Z,224
2019-04-10T15:28:27.000Z,224
2019-04-10T15:29:40.012Z,224
2019-04-10T15:30:52.204Z,224
2019-04-10T15:32:04.404Z,228
2019-04-10T15:33:16.598Z,224
2019-04-10T15:34:28.791Z,220
2019-04-10T15:35:41.004Z,224
2019-04-10T15:36:53.184Z,232
2019-04-10T15:38:05.377Z,252
2019-04-10T15:39:17.651Z,252
2019-04-10T15:40:29.768Z,248
2019-04-10T15:41:41.961Z,244
2019-04-10T15:42:54.000Z,240
2019-04-10T15:44:06.354Z,248
2019-04-10T15:46:30.746Z,280
2019-04-10T15:47:42.943Z,304
2019-04-10T15:48:55.139Z,308
2019-04-10T15:50:07.332Z,324
2019-04-10T15:51:19.052Z,332
2019-04-10T15:52:31.724Z,360
2019-04-10T15:53:43.915Z,364
2019-04-10T15:54:56.114Z,376
2019-04-10T15:56:08.308Z,384
2019-04-10T15:57:20.501Z,388
2019-04-10T15:58:32.853Z,376
2019-04-10T15:59:44.898Z,356
2019-04-10T16:00:57.000Z,328
2019-04-10T16:02:09.287Z,312
2019-04-10T16:03:21.495Z,296
2019-04-10T16:04:33.675Z,288
2019-04-10T16:05:45.879Z,288
2019-04-10T16:06:58.252Z,280
2019-04-10T16:08:10.267Z,272
2019-04-10T16:09:22.045Z,268
2019-04-10T16:10:34.649Z,268
2019-04-10T16:11:46.849Z,392
2019-04-10T16:12:59.040Z,268
2019-04-10T16:14:11.250Z,276
2019-04-10T16:15:23.430Z,296
2019-04-10T16:16:35.635Z,320
2019-04-10T16:17:47.819Z,344
2019-04-10T16:19:00.012Z,356
2019-04-10T16:20:12.212Z,368
2019-04-10T16:22:36.000Z,804
2019-04-10T16:23:48.806Z,660
2019-04-10T16:25:00.998Z,748
2019-04-10T16:26:13.188Z,636
2019-04-10T16:27:25.383Z,792
2019-04-10T16:28:37.058Z,484
2019-04-10T16:29:49.777Z,348
2019-04-10T16:31:01.970Z,304
2019-04-10T16:32:14.171Z,292
2019-04-10T16:34:38.560Z,284
2019-04-10T16:35:50.751Z,268
2019-04-10T16:37:02.946Z,264
2019-04-10T16:38:15.153Z,260
2019-04-10T16:39:27.337Z,260
2019-04-10T16:40:39.537Z,264
2019-04-10T16:41:51.728Z,260
2019-04-10T16:43:03.092Z,244
2019-04-10T16:44:16.000Z,232
2019-04-10T16:45:28.310Z,224
2019-04-10T16:46:40.506Z,216
2019-04-10T16:47:52.070Z,216
2019-04-10T16:49:05.019Z,200
2019-04-10T16:50:17.096Z,196
2019-04-10T16:51:29.297Z,196
2019-04-10T16:52:41.000Z,200
2019-04-10T16:55:05.000Z,248
2019-04-10T16:56:18.074Z,156
2019-04-10T16:57:30.273Z,144
2019-04-10T16:58:42.000Z,128
2019-04-10T16:59:54.672Z,120
2019-04-10T17:01:06.856Z,116
2019-04-10T17:02:19.051Z,112
2019-04-10T17:03:31.025Z,112
2019-04-10T17:04:43.442Z,104
2019-04-10T17:05:55.000Z,104
2019-04-10T17:07:07.828Z,104
2019-04-10T17:08:20.020Z,108
2019-04-10T17:09:32.223Z,104
2019-04-10T17:10:44.426Z,108
2019-04-10T17:11:56.616Z,108
2019-04-10T17:13:08.807Z,108
2019-04-10T17:14:21.007Z,104
2019-04-10T17:15:33.209Z,100
2019-04-10T17:16:45.395Z,96
2019-04-10T17:17:57.589Z,88
2019-04-10T17:19:09.784Z,80
2019-04-10T17:20:21.000Z,72
2019-04-10T17:21:34.017Z,68
2019-04-10T17:22:46.372Z,64
2019-04-10T17:23:58.558Z,60
2019-04-10T17:25:10.075Z,56
2019-04-10T17:26:23.244Z,52
2019-04-10T17:27:35.014Z,44
2019-04-10T17:28:47.000Z,44
2019-04-10T17:29:59.549Z,40
2019-04-10T17:31:11.740Z,40
2019-04-10T17:32:23.958Z,36
2019-04-10T17:34:48.000Z,36
2019-04-10T17:36:00.522Z,40
2019-04-10T17:37:12.715Z,36
2019-04-10T17:38:24.904Z,36
2019-04-10T17:39:37.108Z,36
2019-04-10T17:40:49.000Z,32